Milouin — FT9009 — position and weather

sailwx.info

Track history (hours):
 
Tides and Currents Weather Stations Pressure Air Temp Water Temp Dewpoint Dewpoint Depression Visibility Wind Speed Wind Dir Waves Ship Positions

Milouin

Last reported at 2017-Jan-20 00:17 UTC. Time now 2017-Jan-20 01:47 UTC.
Position N 47°17' W 002°01'.

Length 36 m; draft 2.5 m.

Type: Ship. MMSI: 227003190.

Date/timePositionNaut miles runAvg speedWind from/ knotsBaromVisibWave heightAir tempDewpointWater temp
2017-Jan-20 00:17N 47°17' W 002°01'0 0.0
2017-Jan-19 21:11N 47°17' W 002°01'0 0.0
2017-Jan-19 18:29N 47°17' W 002°01'0 0.0
2017-Jan-19 17:26N 47°17' W 002°01'0 0.0
2017-Jan-19 16:29N 47°17' W 002°01'6 6.5
2017-Jan-19 15:33N 47°17' W 002°10'2 1.5
2017-Jan-19 14:22N 47°16' W 002°12'0 0.1
2017-Jan-19 13:25N 47°16' W 002°12'0 0.0
2017-Jan-19 12:30N 47°16' W 002°12'0 0.1
2017-Jan-19 11:24N 47°16' W 002°12'0 0.0
2017-Jan-19 10:27N 47°16' W 002°12'0 0.1
2017-Jan-19 09:12N 47°16' W 002°12'1 0.8
2017-Jan-19 08:06N 47°17' W 002°12'1 1.4
2017-Jan-19 07:27N 47°16' W 002°12'5 5.8
2017-Jan-19 06:33N 47°18' W 002°05'3 2.6
2017-Jan-19 05:31N 47°17' W 002°01'0 0.0
2017-Jan-19 04:10N 47°17' W 002°01'0 0.0
2017-Jan-19 01:31N 47°17' W 002°01'0 0.0
2017-Jan-19 00:13N 47°17' W 002°01'0 0.0
2017-Jan-18 23:31N 47°17' W 002°01'0 0.0
2017-Jan-18 22:19N 47°17' W 002°01'0 0.0
2017-Jan-18 21:31N 47°17' W 002°01'0 0.0
2017-Jan-18 20:31N 47°17' W 002°01'0 0.0
2017-Jan-18 19:31N 47°17' W 002°01'0 0.0
2017-Jan-18 18:31N 47°17' W 002°01'0 0.0
2017-Jan-18 17:28N 47°17' W 002°01'2 0.9
2017-Jan-18 15:31N 47°18' W 002°04'1 1.2
2017-Jan-18 14:33N 47°18' W 002°05'0 0.5
2017-Jan-18 13:32N 47°18' W 002°06'0 0.1
2017-Jan-18 12:33N 47°18' W 002°06'0 0.1
2017-Jan-18 11:20N 47°18' W 002°06'0 0.0
2017-Jan-18 10:24N 47°18' W 002°06'0 0.0
2017-Jan-18 09:28N 47°18' W 002°06'0 0.0
2017-Jan-18 08:28N 47°18' W 002°06'0 0.1
2017-Jan-18 07:22N 47°18' W 002°06'1 1.7
2017-Jan-18 06:33N 47°18' W 002°04'2 1.5
2017-Jan-18 05:10N 47°17' W 002°01'0 0.0
2017-Jan-18 04:28N 47°17' W 002°01'0 0.0
2017-Jan-18 02:13N 47°17' W 002°01'0 0.0
2017-Jan-18 01:13N 47°17' W 002°01'0 0.0
2017-Jan-18 00:31N 47°17' W 002°01'0 0.0
2017-Jan-17 23:25N 47°17' W 002°01'0 0.0
2017-Jan-17 22:28N 47°17' W 002°01'0 0.0
2017-Jan-17 21:25N 47°17' W 002°01'0 0.0
2017-Jan-17 20:31N 47°17' W 002°01'0 0.0
2017-Jan-17 19:19N 47°17' W 002°01'0 0.0
2017-Jan-17 18:25N 47°17' W 002°01'0 0.0
2017-Jan-17 17:25N 47°17' W 002°01'0 0.0
2017-Jan-17 09:32N 47°17' W 002°01'8 7.9
2017-Jan-17 08:34N 47°15' W 001°51'0 0.2
2017-Jan-17 07:30N 47°14' W 001°50'4 1.8
2017-Jan-17 05:22N 47°12' W 001°46'0 0.0
2017-Jan-17 04:28N 47°12' W 001°46'0 0.0
2017-Jan-17 02:28N 47°12' W 001°46'0 0.0
2017-Jan-16 20:13N 47°12' W 001°46'0 0.0
2017-Jan-16 19:31N 47°12' W 001°46'0 0.0
2017-Jan-16 18:25N 47°12' W 001°46'0 0.0
2017-Jan-16 17:31N 47°12' W 001°46'0 0.0
2017-Jan-16 16:33N 47°12' W 001°46'5 5.5
2017-Jan-16 15:33N 47°12' W 001°38'0 0.0
2017-Jan-16 07:19N 47°12' W 001°38'  
2017-Jan-12 19:18N 47°12' W 001°46'0 0.0
2017-Jan-12 18:33N 47°12' W 001°46'0 0.0
2017-Jan-12 17:30N 47°12' W 001°46'0 0.0
2017-Jan-12 16:33N 47°12' W 001°46'4 4.5
2017-Jan-12 15:33N 47°15' W 001°51'7 1.4
2017-Jan-12 10:16N 47°17' W 002°01'2 2.6
2017-Jan-12 09:32N 47°18' W 002°04'0 0.4
2017-Jan-12 08:32N 47°18' W 002°03'0 0.2
2017-Jan-12 07:33N 47°18' W 002°03'0 0.2
2017-Jan-12 06:31N 47°18' W 002°04'2 1.8
2017-Jan-12 05:30N 47°17' W 002°01'0 0.0
2017-Jan-12 04:06N 47°17' W 002°01'0 0.0
2017-Jan-12 03:27N 47°17' W 002°01'0 0.0
2017-Jan-12 02:30N 47°17' W 002°01'0 0.0
2017-Jan-12 01:32N 47°17' W 002°01'0 0.0
2017-Jan-12 00:33N 47°17' W 002°01'0 0.0
2017-Jan-11 23:06N 47°17' W 002°01'0 0.0
2017-Jan-11 22:24N 47°17' W 002°01'0 0.0
2017-Jan-11 21:30N 47°17' W 002°01'0 0.0
2017-Jan-11 20:26N 47°17' W 002°01'0 0.0
2017-Jan-11 19:32N 47°17' W 002°01'0 0.0
2017-Jan-11 18:18N 47°17' W 002°01'0 0.0
2017-Jan-11 17:29N 47°17' W 002°01'1 1.5
2017-Jan-11 16:32N 47°18' W 002°03'0 0.0
2017-Jan-11 15:32N 47°18' W 002°03'1 1.3
2017-Jan-11 14:28N 47°17' W 002°01'0 0.0
2017-Jan-11 09:23N 47°17' W 002°01'2 1.6
2017-Jan-11 08:10N 47°18' W 002°04'2 0.2
2017-Jan-10 20:30N 47°17' W 002°01'0 0.0
2017-Jan-10 19:30N 47°17' W 002°01'0 0.0
2017-Jan-10 18:24N 47°17' W 002°01'0 0.0
2017-Jan-10 17:27N 47°17' W 002°01'1 1.5
2017-Jan-10 16:33N 47°18' W 002°03'0 0.4
2017-Jan-10 15:32N 47°18' W 002°03'0 0.3
2017-Jan-10 14:07N 47°18' W 002°03'1 0.7
2017-Jan-10 12:16N 47°17' W 002°01'1 0.3
2017-Jan-10 07:30N 47°18' W 002°03'9 8.0
2017-Jan-10 06:21N 47°14' W 001°50'  
Track history (hours):
 
Tides and Currents Weather Stations Pressure Air Temp Water Temp Dewpoint Dewpoint Depression Visibility Wind Speed Wind Dir Waves Ship Positions

Milouin

Last reported at 2017-Jan-20 00:17 UTC. Time now 2017-Jan-20 01:47 UTC.
Position N 47°17' W 002°01'.

Length 36 m; draft 2.5 m.

Type: Ship. MMSI: 227003190.

Date/timePositionNaut miles runAvg speedWind from/ knotsBaromVisibWave heightAir tempDewpointWater temp
2017-Jan-20 00:17N 47°17' W 002°01'0 0.0
2017-Jan-19 21:11N 47°17' W 002°01'0 0.0
2017-Jan-19 18:29N 47°17' W 002°01'0 0.0
2017-Jan-19 17:26N 47°17' W 002°01'0 0.0
2017-Jan-19 16:29N 47°17' W 002°01'6 6.5
2017-Jan-19 15:33N 47°17' W 002°10'2 1.5
2017-Jan-19 14:22N 47°16' W 002°12'0 0.1
2017-Jan-19 13:25N 47°16' W 002°12'0 0.0
2017-Jan-19 12:30N 47°16' W 002°12'0 0.1
2017-Jan-19 11:24N 47°16' W 002°12'0 0.0
2017-Jan-19 10:27N 47°16' W 002°12'0 0.1
2017-Jan-19 09:12N 47°16' W 002°12'1 0.8
2017-Jan-19 08:06N 47°17' W 002°12'1 1.4
2017-Jan-19 07:27N 47°16' W 002°12'5 5.8
2017-Jan-19 06:33N 47°18' W 002°05'3 2.6
2017-Jan-19 05:31N 47°17' W 002°01'0 0.0
2017-Jan-19 04:10N 47°17' W 002°01'0 0.0
2017-Jan-19 01:31N 47°17' W 002°01'0 0.0
2017-Jan-19 00:13N 47°17' W 002°01'0 0.0
2017-Jan-18 23:31N 47°17' W 002°01'0 0.0
2017-Jan-18 22:19N 47°17' W 002°01'0 0.0
2017-Jan-18 21:31N 47°17' W 002°01'0 0.0
2017-Jan-18 20:31N 47°17' W 002°01'0 0.0
2017-Jan-18 19:31N 47°17' W 002°01'0 0.0
2017-Jan-18 18:31N 47°17' W 002°01'0 0.0
2017-Jan-18 17:28N 47°17' W 002°01'2 0.9
2017-Jan-18 15:31N 47°18' W 002°04'1 1.2
2017-Jan-18 14:33N 47°18' W 002°05'0 0.5
2017-Jan-18 13:32N 47°18' W 002°06'0 0.1
2017-Jan-18 12:33N 47°18' W 002°06'0 0.1
2017-Jan-18 11:20N 47°18' W 002°06'0 0.0
2017-Jan-18 10:24N 47°18' W 002°06'0 0.0
2017-Jan-18 09:28N 47°18' W 002°06'0 0.0
2017-Jan-18 08:28N 47°18' W 002°06'0 0.1
2017-Jan-18 07:22N 47°18' W 002°06'1 1.7
2017-Jan-18 06:33N 47°18' W 002°04'2 1.5
2017-Jan-18 05:10N 47°17' W 002°01'0 0.0
2017-Jan-18 04:28N 47°17' W 002°01'0 0.0
2017-Jan-18 02:13N 47°17' W 002°01'0 0.0
2017-Jan-18 01:13N 47°17' W 002°01'0 0.0
2017-Jan-18 00:31N 47°17' W 002°01'0 0.0
2017-Jan-17 23:25N 47°17' W 002°01'0 0.0
2017-Jan-17 22:28N 47°17' W 002°01'0 0.0
2017-Jan-17 21:25N 47°17' W 002°01'0 0.0
2017-Jan-17 20:31N 47°17' W 002°01'0 0.0
2017-Jan-17 19:19N 47°17' W 002°01'0 0.0
2017-Jan-17 18:25N 47°17' W 002°01'0 0.0
2017-Jan-17 17:25N 47°17' W 002°01'0 0.0
2017-Jan-17 09:32N 47°17' W 002°01'8 7.9
2017-Jan-17 08:34N 47°15' W 001°51'0 0.2
2017-Jan-17 07:30N 47°14' W 001°50'4 1.8
2017-Jan-17 05:22N 47°12' W 001°46'0 0.0
2017-Jan-17 04:28N 47°12' W 001°46'0 0.0
2017-Jan-17 02:28N 47°12' W 001°46'0 0.0
2017-Jan-16 20:13N 47°12' W 001°46'0 0.0
2017-Jan-16 19:31N 47°12' W 001°46'0 0.0
2017-Jan-16 18:25N 47°12' W 001°46'0 0.0
2017-Jan-16 17:31N 47°12' W 001°46'0 0.0
2017-Jan-16 16:33N 47°12' W 001°46'5 5.5
2017-Jan-16 15:33N 47°12' W 001°38'0 0.0
2017-Jan-16 07:19N 47°12' W 001°38'  
2017-Jan-12 19:18N 47°12' W 001°46'0 0.0
2017-Jan-12 18:33N 47°12' W 001°46'0 0.0
2017-Jan-12 17:30N 47°12' W 001°46'0 0.0
2017-Jan-12 16:33N 47°12' W 001°46'4 4.5
2017-Jan-12 15:33N 47°15' W 001°51'7 1.4
2017-Jan-12 10:16N 47°17' W 002°01'2 2.6
2017-Jan-12 09:32N 47°18' W 002°04'0 0.4
2017-Jan-12 08:32N 47°18' W 002°03'0 0.2
2017-Jan-12 07:33N 47°18' W 002°03'0 0.2
2017-Jan-12 06:31N 47°18' W 002°04'2 1.8
2017-Jan-12 05:30N 47°17' W 002°01'0 0.0
2017-Jan-12 04:06N 47°17' W 002°01'0 0.0
2017-Jan-12 03:27N 47°17' W 002°01'0 0.0
2017-Jan-12 02:30N 47°17' W 002°01'0 0.0
2017-Jan-12 01:32N 47°17' W 002°01'0 0.0
2017-Jan-12 00:33N 47°17' W 002°01'0 0.0
2017-Jan-11 23:06N 47°17' W 002°01'0 0.0
2017-Jan-11 22:24N 47°17' W 002°01'0 0.0
2017-Jan-11 21:30N 47°17' W 002°01'0 0.0
2017-Jan-11 20:26N 47°17' W 002°01'0 0.0
2017-Jan-11 19:32N 47°17' W 002°01'0 0.0
2017-Jan-11 18:18N 47°17' W 002°01'0 0.0
2017-Jan-11 17:29N 47°17' W 002°01'1 1.5
2017-Jan-11 16:32N 47°18' W 002°03'0 0.0
2017-Jan-11 15:32N 47°18' W 002°03'1 1.3
2017-Jan-11 14:28N 47°17' W 002°01'0 0.0
2017-Jan-11 09:23N 47°17' W 002°01'2 1.6
2017-Jan-11 08:10N 47°18' W 002°04'2 0.2
2017-Jan-10 20:30N 47°17' W 002°01'0 0.0
2017-Jan-10 19:30N 47°17' W 002°01'0 0.0
2017-Jan-10 18:24N 47°17' W 002°01'0 0.0
2017-Jan-10 17:27N 47°17' W 002°01'1 1.5
2017-Jan-10 16:33N 47°18' W 002°03'0 0.4
2017-Jan-10 15:32N 47°18' W 002°03'0 0.3
2017-Jan-10 14:07N 47°18' W 002°03'1 0.7
2017-Jan-10 12:16N 47°17' W 002°01'1 0.3
2017-Jan-10 07:30N 47°18' W 002°03'9 8.0
2017-Jan-10 06:21N 47°14' W 001°50'  

Dump ship's entire track history